Main page
METAR-TAF:

METAR-TAF

Airports :

Rota, Spain

Naval Station Rota

latitude: 36-39N, longitude: 006-21W, elevation: 26 m

Current weather observation

The report was made 21 minutes ago, at 07:00 UTC
Wind 2 kt from variable directions
Temperature 7°C
Humidity 70%
Pressure 1016 hPa
Visibility 10 km or more
no clouds below 1500 m and no cumulonimbus

METAR: LERT 220700Z VRB02KT CAVOK 07/02 Q1016 NOSIG

Time: 08:21 (07:21 UTC)

Forecast

The report was made 2 hours and 21 minutes ago, at 05:00 UTC
Forecast valid from 22 at 06 UTC to 22 at 15 UTC
Wind 5 kt from the East/Northeast
Visibility 10 km or more
no clouds below 1500 m and no cumulonimbus
Becoming
from 22 at 10 UTC to 22 at 12 UTC
Wind 10 kt from the South

TAF: LERT 220500Z 2206/2215 06005KT CAVOK BECMG 2210/2212 18010KT

Weather observations and forecasts of more than 4000 airports (METAR and TAF reports).

The available stations are represented by yellow and red dots on the map.

Hover mouse over dot to see the name of the station.

Then click to see weather observations and forecasts.

To change the map : click on the green buttons with a black cross to zoom in, on the green button with a dash to zoom out, or on the green arrows for adjacent maps.


METAR-TAF: